Chiang Mai, Thailand

1:08 PM ICT on October 01, 2014 (GMT +0700)
ThaiWx Station | Change Station
CLOSE
Current Station
Personal Weather Station
Location: Chiang Mai, Pa Daet
Elevation: 1007 ft
Nearby Weather Stations

Elev 1007 ft 18.77 °N, 98.97 °E | Updated 1 minute ago

Scattered Clouds
Scattered Clouds
89.8 °F
Feels Like 98 °F
N
1.3
Wind Variable Wind from NE
Gusts 4.7 mph

Today
High -- | Low -- °F
--% Chance of Precip.
Yesterday
High -- | Low -- °F
Precip. -- in
6:14 AM 6:12 PM
Waxing Crescent, 44% visible
Pressure 29.92 in
Visibility 6.2 miles
Clouds Scattered Clouds 3500 ft
Heat Index 98 °F
Dew Point 73 °F
Humidity 58%
Rainfall 0.00 in
Snow Depth Not available.
UV 13 out of 12
Pollen Not available.
Air Quality Not available.
Flu Activity Not available.
METAR VTCC 010530Z 28003KT 9999 SCT035 31/20 Q1013 A2994 NOSIG

More Conditions Fewer Conditions

Pressure 29.92 in
Visibility 6.2 miles
Clouds Scattered Clouds 3500 ft
Heat Index 98 °F
Dew Point 73 °F
Humidity 58%
Rainfall 0.00 in
Snow Depth Not available.
UV 13 out of 12
Pollen Not available.
Air Quality Not available.
Flu Activity Not available.
METAR VTCC 010530Z 28003KT 9999 SCT035 31/20 Q1013 A2994 NOSIG

More Conditions Fewer Conditions

10-Day Weather Forecast

Almanac

Astronomy

Oct. 01, 2014 Rise Set
Actual Time 6:14 AM ICT 6:12 PM ICT
Civil Twilight 5:52 AM ICT 6:34 PM ICT
Nautical Twilight 5:27 AM ICT 7:00 PM ICT
Astronomical Twilight 5:02 AM ICT 7:25 PM ICT
Moon 12:12 PM ICT 11:46 PM ICT
Length of Visible Light 12h 41m
Length of Day
11h 58m
Tomorrow will be 1m 3s shorter.
Waxing Crescent, 44% of the Moon is Illuminated
Today
Waxing Crescent
Oct 1
First Quarter
Oct 8
Full
Oct 15
Last Quarter
Oct 23
New

Yesterday's Extremes

Country Highs Country Lows

Community

WunderPhotos

Upload Photos

1,757,877 photos uploaded!

Nearby

Snow Depth

Not available.

Earthquake Activity

City Distance Mag. Time & Date
No recent earthquake activity has been reported nearby.
Minimum magnitude displayed is 2.5.

Coastal Water Temperatures

Place Temperature
No Stations Reporting

Nearby Weather Stations